sensor_id;sensor_type;location;lat;lon;timestamp;pressure;altitude;pressure_sealevel;temperature;humidity
49999;BME280;68071;45.062;7.356;2023-03-20T00:01:01;95373.69;;;8.78;75.55
49999;BME280;68071;45.062;7.356;2023-03-20T00:04:05;95371.69;;;8.75;76.22
49999;BME280;68071;45.062;7.356;2023-03-20T00:07:09;95375.56;;;8.53;77.30
49999;BME280;68071;45.062;7.356;2023-03-20T00:10:17;95374.06;;;8.70;76.32
49999;BME280;68071;45.062;7.356;2023-03-20T00:13:22;95378.03;;;8.98;73.29
49999;BME280;68071;45.062;7.356;2023-03-20T00:16:33;95371.75;;;9.12;71.31
49999;BME280;68071;45.062;7.356;2023-03-20T00:19:37;95375.63;;;8.78;75.99
49999;BME280;68071;45.062;7.356;2023-03-20T00:22:41;95378.78;;;8.84;75.67
49999;BME280;68071;45.062;7.356;2023-03-20T00:25:45;95379.56;;;8.73;75.12
49999;BME280;68071;45.062;7.356;2023-03-20T00:28:49;95385.88;;;8.77;75.55
49999;BME280;68071;45.062;7.356;2023-03-20T00:31:54;95381.94;;;8.82;78.55
49999;BME280;68071;45.062;7.356;2023-03-20T00:34:58;95380.00;;;9.12;77.14
49999;BME280;68071;45.062;7.356;2023-03-20T00:38:02;95380.59;;;8.43;79.88
49999;BME280;68071;45.062;7.356;2023-03-20T00:41:20;95376.78;;;8.66;82.38
49999;BME280;68071;45.062;7.356;2023-03-20T00:44:33;95383.13;;;8.99;79.44
49999;BME280;68071;45.062;7.356;2023-03-20T00:47:38;95374.09;;;9.10;77.94
49999;BME280;68071;45.062;7.356;2023-03-20T00:50:44;95383.13;;;8.96;81.62
49999;BME280;68071;45.062;7.356;2023-03-20T00:53:49;95375.56;;;8.53;84.17
49999;BME280;68071;45.062;7.356;2023-03-20T00:57:07;95380.09;;;8.16;81.51
49999;BME280;68071;45.062;7.356;2023-03-20T01:03:25;95366.75;;;8.11;86.42
49999;BME280;68071;45.062;7.356;2023-03-20T01:06:29;95371.53;;;7.54;92.83
49999;BME280;68071;45.062;7.356;2023-03-20T01:09:33;95364.44;;;7.53;94.29
49999;BME280;68071;45.062;7.356;2023-03-20T01:12:39;95357.41;;;8.41;78.92
49999;BME280;68071;45.062;7.356;2023-03-20T01:15:44;95357.00;;;8.31;81.69
49999;BME280;68071;45.062;7.356;2023-03-20T01:18:49;95358.03;;;8.05;85.78
49999;BME280;68071;45.062;7.356;2023-03-20T01:21:53;95351.31;;;7.95;86.74
49999;BME280;68071;45.062;7.356;2023-03-20T01:24:58;95353.69;;;7.93;86.68
49999;BME280;68071;45.062;7.356;2023-03-20T01:28:03;95348.53;;;7.88;87.31
49999;BME280;68071;45.062;7.356;2023-03-20T01:31:17;95347.03;;;8.01;86.90
49999;BME280;68071;45.062;7.356;2023-03-20T01:34:22;95345.25;;;8.53;83.52
49999;BME280;68071;45.062;7.356;2023-03-20T01:37:26;95343.63;;;8.41;83.01
49999;BME280;68071;45.062;7.356;2023-03-20T01:41:00;95341.16;;;8.10;84.03
49999;BME280;68071;45.062;7.356;2023-03-20T01:44:18;95334.06;;;8.02;84.88
49999;BME280;68071;45.062;7.356;2023-03-20T01:47:27;95338.41;;;8.03;85.96
49999;BME280;68071;45.062;7.356;2023-03-20T01:50:36;95331.41;;;8.31;81.62
49999;BME280;68071;45.062;7.356;2023-03-20T01:53:50;95334.06;;;8.06;82.73
49999;BME280;68071;45.062;7.356;2023-03-20T01:57:13;95332.53;;;8.15;82.99
49999;BME280;68071;45.062;7.356;2023-03-20T02:00:18;95332.25;;;8.46;81.06
49999;BME280;68071;45.062;7.356;2023-03-20T02:03:24;95332.31;;;7.65;84.72
49999;BME280;68071;45.062;7.356;2023-03-20T02:06:47;95328.81;;;7.79;83.36
49999;BME280;68071;45.062;7.356;2023-03-20T02:09:55;95316.97;;;7.64;83.02
49999;BME280;68071;45.062;7.356;2023-03-20T02:13:10;95332.59;;;7.52;84.12
49999;BME280;68071;45.062;7.356;2023-03-20T02:16:22;95328.53;;;7.28;84.56
49999;BME280;68071;45.062;7.356;2023-03-20T02:46:54;95325.50;;;6.47;88.84
49999;BME280;68071;45.062;7.356;2023-03-20T02:53:30;95329.03;;;6.92;86.10
49999;BME280;68071;45.062;7.356;2023-03-20T02:56:54;95327.81;;;6.86;88.31
49999;BME280;68071;45.062;7.356;2023-03-20T03:00:13;95313.16;;;6.71;90.27
49999;BME280;68071;45.062;7.356;2023-03-20T03:06:41;95320.13;;;6.61;89.14
49999;BME280;68071;45.062;7.356;2023-03-20T03:09:55;95311.13;;;7.13;85.66
49999;BME280;68071;45.062;7.356;2023-03-20T03:13:02;95312.88;;;7.36;83.77
49999;BME280;68071;45.062;7.356;2023-03-20T03:16:16;95315.25;;;7.41;83.69
49999;BME280;68071;45.062;7.356;2023-03-20T03:19:24;95323.03;;;7.32;86.70
49999;BME280;68071;45.062;7.356;2023-03-20T03:22:31;95320.72;;;7.34;85.54
49999;BME280;68071;45.062;7.356;2023-03-20T03:25:39;95329.59;;;7.13;85.91
49999;BME280;68071;45.062;7.356;2023-03-20T03:28:50;95323.94;;;7.43;85.09
49999;BME280;68071;45.062;7.356;2023-03-20T03:31:57;95324.53;;;6.70;89.32
49999;BME280;68071;45.062;7.356;2023-03-20T03:35:03;95328.91;;;6.78;91.75
49999;BME280;68071;45.062;7.356;2023-03-20T03:45:07;95337.84;;;6.68;93.01
49999;BME280;68071;45.062;7.356;2023-03-20T03:48:20;95324.97;;;6.34;95.23
49999;BME280;68071;45.062;7.356;2023-03-20T03:51:28;95332.97;;;6.12;97.83
49999;BME280;68071;45.062;7.356;2023-03-20T03:54:44;95335.38;;;6.17;96.21
49999;BME280;68071;45.062;7.356;2023-03-20T03:58:18;95336.28;;;6.29;93.28
49999;BME280;68071;45.062;7.356;2023-03-20T04:01:25;95332.03;;;6.35;91.66
49999;BME280;68071;45.062;7.356;2023-03-20T04:04:31;95335.13;;;6.30;90.90
49999;BME280;68071;45.062;7.356;2023-03-20T04:07:37;95336.16;;;5.87;92.69
49999;BME280;68071;45.062;7.356;2023-03-20T04:10:41;95337.28;;;6.13;91.49
49999;BME280;68071;45.062;7.356;2023-03-20T04:13:47;95339.91;;;6.02;91.67
49999;BME280;68071;45.062;7.356;2023-03-20T04:16:51;95339.84;;;5.99;90.59
49999;BME280;68071;45.062;7.356;2023-03-20T04:19:56;95342.22;;;6.00;91.90
49999;BME280;68071;45.062;7.356;2023-03-20T04:23:01;95344.16;;;5.69;92.50
49999;BME280;68071;45.062;7.356;2023-03-20T04:26:07;95344.53;;;5.14;95.09
49999;BME280;68071;45.062;7.356;2023-03-20T04:29:12;95340.44;;;5.00;97.29
49999;BME280;68071;45.062;7.356;2023-03-20T04:32:39;95339.06;;;5.41;95.41
49999;BME280;68071;45.062;7.356;2023-03-20T04:36:06;95337.06;;;5.11;94.26
49999;BME280;68071;45.062;7.356;2023-03-20T04:39:10;95342.13;;;5.36;94.31
49999;BME280;68071;45.062;7.356;2023-03-20T04:42:15;95345.13;;;5.54;93.59
49999;BME280;68071;45.062;7.356;2023-03-20T04:45:19;95337.69;;;5.54;92.41
49999;BME280;68071;45.062;7.356;2023-03-20T04:48:23;95334.59;;;4.79;94.48
49999;BME280;68071;45.062;7.356;2023-03-20T04:51:28;95337.56;;;4.47;98.21
49999;BME280;68071;45.062;7.356;2023-03-20T04:54:31;95341.47;;;4.69;98.49
49999;BME280;68071;45.062;7.356;2023-03-20T04:57:35;95343.78;;;4.44;95.95
49999;BME280;68071;45.062;7.356;2023-03-20T05:00:42;95355.25;;;4.73;95.07
49999;BME280;68071;45.062;7.356;2023-03-20T05:03:47;95352.84;;;4.48;93.75
49999;BME280;68071;45.062;7.356;2023-03-20T05:06:51;95354.47;;;4.52;95.89
49999;BME280;68071;45.062;7.356;2023-03-20T05:09:59;95361.28;;;4.39;99.19
49999;BME280;68071;45.062;7.356;2023-03-20T05:13:03;95367.91;;;4.38;100.00
49999;BME280;68071;45.062;7.356;2023-03-20T05:16:13;95362.47;;;4.61;98.58
49999;BME280;68071;45.062;7.356;2023-03-20T05:19:32;95368.50;;;3.69;100.00
49999;BME280;68071;45.062;7.356;2023-03-20T05:22:49;95373.78;;;4.83;96.66
49999;BME280;68071;45.062;7.356;2023-03-20T05:26:29;95371.09;;;4.63;96.31
49999;BME280;68071;45.062;7.356;2023-03-20T05:29:33;95371.81;;;3.98;100.00
49999;BME280;68071;45.062;7.356;2023-03-20T05:33:07;95369.44;;;3.41;100.00
49999;BME280;68071;45.062;7.356;2023-03-20T05:36:31;95366.03;;;3.63;100.00
49999;BME280;68071;45.062;7.356;2023-03-20T05:39:54;95368.44;;;4.04;100.00
49999;BME280;68071;45.062;7.356;2023-03-20T05:43:15;95371.09;;;4.01;100.00
49999;BME280;68071;45.062;7.356;2023-03-20T05:46:46;95362.88;;;3.61;100.00
49999;BME280;68071;45.062;7.356;2023-03-20T05:50:25;95368.34;;;3.81;100.00
49999;BME280;68071;45.062;7.356;2023-03-20T05:53:52;95377.00;;;3.47;100.00
49999;BME280;68071;45.062;7.356;2023-03-20T05:57:12;95383.09;;;3.76;100.00
49999;BME280;68071;45.062;7.356;2023-03-20T06:00:37;95382.47;;;4.03;100.00
49999;BME280;68071;45.062;7.356;2023-03-20T06:04:07;95379.44;;;3.88;100.00
49999;BME280;68071;45.062;7.356;2023-03-20T06:07:40;95389.69;;;3.56;100.00
49999;BME280;68071;45.062;7.356;2023-03-20T06:10:50;95397.34;;;3.86;100.00
49999;BME280;68071;45.062;7.356;2023-03-20T06:13:54;95399.38;;;4.08;100.00
49999;BME280;68071;45.062;7.356;2023-03-20T06:17:07;95393.38;;;4.62;100.00
49999;BME280;68071;45.062;7.356;2023-03-20T06:20:12;95390.47;;;4.74;100.00
49999;BME280;68071;45.062;7.356;2023-03-20T06:23:16;95394.44;;;5.00;100.00
49999;BME280;68071;45.062;7.356;2023-03-20T06:26:20;95395.97;;;4.54;100.00
49999;BME280;68071;45.062;7.356;2023-03-20T06:29:36;95391.13;;;4.67;100.00
49999;BME280;68071;45.062;7.356;2023-03-20T06:32:49;95401.78;;;4.96;100.00
49999;BME280;68071;45.062;7.356;2023-03-20T06:35:54;95402.09;;;4.91;100.00
49999;BME280;68071;45.062;7.356;2023-03-20T06:38:59;95400.75;;;5.27;100.00
49999;BME280;68071;45.062;7.356;2023-03-20T06:42:05;95407.16;;;5.39;100.00
49999;BME280;68071;45.062;7.356;2023-03-20T06:45:10;95405.97;;;5.63;100.00
49999;BME280;68071;45.062;7.356;2023-03-20T06:48:34;95406.84;;;5.98;100.00
49999;BME280;68071;45.062;7.356;2023-03-20T06:51:42;95415.28;;;6.12;99.94
49999;BME280;68071;45.062;7.356;2023-03-20T06:54:46;95420.88;;;6.19;97.58
49999;BME280;68071;45.062;7.356;2023-03-20T06:57:51;95410.09;;;6.38;96.71
49999;BME280;68071;45.062;7.356;2023-03-20T07:00:56;95415.34;;;6.50;95.53
49999;BME280;68071;45.062;7.356;2023-03-20T07:04:00;95401.44;;;6.70;93.61
49999;BME280;68071;45.062;7.356;2023-03-20T07:07:10;95408.22;;;6.79;92.80
49999;BME280;68071;45.062;7.356;2023-03-20T07:10:14;95406.75;;;6.89;93.01
49999;BME280;68071;45.062;7.356;2023-03-20T07:13:25;95395.13;;;7.07;92.30
49999;BME280;68071;45.062;7.356;2023-03-20T07:16:32;95401.56;;;7.25;92.38
49999;BME280;68071;45.062;7.356;2023-03-20T07:19:36;95398.44;;;7.31;91.80
49999;BME280;68071;45.062;7.356;2023-03-20T07:22:41;95410.34;;;7.42;91.53
49999;BME280;68071;45.062;7.356;2023-03-20T07:26:06;95417.06;;;8.11;86.60
49999;BME280;68071;45.062;7.356;2023-03-20T07:29:11;95419.47;;;8.16;87.56
49999;BME280;68071;45.062;7.356;2023-03-20T07:32:16;95424.91;;;8.09;87.19
49999;BME280;68071;45.062;7.356;2023-03-20T07:35:26;95423.31;;;8.01;88.55
49999;BME280;68071;45.062;7.356;2023-03-20T07:38:30;95423.16;;;8.50;86.83
49999;BME280;68071;45.062;7.356;2023-03-20T07:41:46;95429.31;;;8.21;87.38
49999;BME280;68071;45.062;7.356;2023-03-20T07:45:00;95426.16;;;8.23;88.27
49999;BME280;68071;45.062;7.356;2023-03-20T07:48:04;95430.94;;;8.29;85.93
49999;BME280;68071;45.062;7.356;2023-03-20T07:51:09;95430.53;;;8.27;86.62
49999;BME280;68071;45.062;7.356;2023-03-20T07:54:14;95439.94;;;8.23;87.23
49999;BME280;68071;45.062;7.356;2023-03-20T07:57:18;95438.03;;;8.38;85.92
49999;BME280;68071;45.062;7.356;2023-03-20T08:00:22;95430.56;;;8.38;86.49
49999;BME280;68071;45.062;7.356;2023-03-20T08:03:26;95436.09;;;8.45;83.57
49999;BME280;68071;45.062;7.356;2023-03-20T08:06:30;95432.22;;;8.50;82.03
49999;BME280;68071;45.062;7.356;2023-03-20T08:09:34;95441.72;;;8.67;80.89
49999;BME280;68071;45.062;7.356;2023-03-20T08:12:39;95446.69;;;8.36;82.08
49999;BME280;68071;45.062;7.356;2023-03-20T08:15:43;95445.53;;;8.41;83.10
49999;BME280;68071;45.062;7.356;2023-03-20T08:18:49;95444.53;;;8.82;81.11
49999;BME280;68071;45.062;7.356;2023-03-20T08:21:53;95455.13;;;8.72;81.18
49999;BME280;68071;45.062;7.356;2023-03-20T08:24:57;95450.78;;;8.68;81.81
49999;BME280;68071;45.062;7.356;2023-03-20T08:28:01;95455.19;;;8.87;81.65
49999;BME280;68071;45.062;7.356;2023-03-20T08:31:09;95456.81;;;9.28;81.07
49999;BME280;68071;45.062;7.356;2023-03-20T08:34:12;95454.84;;;9.17;78.37
49999;BME280;68071;45.062;7.356;2023-03-20T08:37:17;95453.69;;;9.29;78.75
49999;BME280;68071;45.062;7.356;2023-03-20T08:40:20;95463.16;;;9.32;76.76
49999;BME280;68071;45.062;7.356;2023-03-20T08:43:25;95454.91;;;9.35;78.22
49999;BME280;68071;45.062;7.356;2023-03-20T08:46:29;95449.75;;;9.48;78.11
49999;BME280;68071;45.062;7.356;2023-03-20T08:49:33;95450.97;;;9.73;75.99
49999;BME280;68071;45.062;7.356;2023-03-20T08:52:37;95448.19;;;9.58;78.02
49999;BME280;68071;45.062;7.356;2023-03-20T08:55:50;95458.44;;;9.47;75.05
49999;BME280;68071;45.062;7.356;2023-03-20T08:58:55;95462.78;;;9.91;73.43
49999;BME280;68071;45.062;7.356;2023-03-20T09:01:58;95457.66;;;9.79;74.67
49999;BME280;68071;45.062;7.356;2023-03-20T09:05:03;95467.47;;;10.20;74.11
49999;BME280;68071;45.062;7.356;2023-03-20T09:08:07;95474.94;;;10.37;71.46
49999;BME280;68071;45.062;7.356;2023-03-20T09:11:11;95468.22;;;10.35;71.43
49999;BME280;68071;45.062;7.356;2023-03-20T09:14:15;95465.06;;;10.36;72.58
49999;BME280;68071;45.062;7.356;2023-03-20T09:17:19;95463.06;;;10.37;72.70
49999;BME280;68071;45.062;7.356;2023-03-20T09:20:23;95461.13;;;10.48;72.52
49999;BME280;68071;45.062;7.356;2023-03-20T09:23:27;95451.97;;;10.66;73.33
49999;BME280;68071;45.062;7.356;2023-03-20T09:26:31;95464.94;;;10.80;71.36
49999;BME280;68071;45.062;7.356;2023-03-20T09:29:35;95460.03;;;11.13;69.69
49999;BME280;68071;45.062;7.356;2023-03-20T09:32:39;95462.31;;;11.25;70.30
49999;BME280;68071;45.062;7.356;2023-03-20T09:35:43;95462.44;;;11.03;71.70
49999;BME280;68071;45.062;7.356;2023-03-20T09:38:47;95456.19;;;10.88;71.26
49999;BME280;68071;45.062;7.356;2023-03-20T09:41:51;95455.28;;;11.13;69.20
49999;BME280;68071;45.062;7.356;2023-03-20T09:51:34;95434.72;;;11.71;67.67
49999;BME280;68071;45.062;7.356;2023-03-20T09:54:42;95437.91;;;12.15;66.42
49999;BME280;68071;45.062;7.356;2023-03-20T09:57:54;95432.78;;;12.13;66.38
49999;BME280;68071;45.062;7.356;2023-03-20T10:01:01;95425.06;;;12.32;64.24
49999;BME280;68071;45.062;7.356;2023-03-20T10:04:09;95423.97;;;12.22;69.17
49999;BME280;68071;45.062;7.356;2023-03-20T10:07:16;95421.03;;;12.02;68.58
49999;BME280;68071;45.062;7.356;2023-03-20T10:10:38;95422.09;;;12.50;66.54
49999;BME280;68071;45.062;7.356;2023-03-20T10:13:50;95425.16;;;12.21;65.43
49999;BME280;68071;45.062;7.356;2023-03-20T10:23:34;95414.84;;;12.25;65.46
49999;BME280;68071;45.062;7.356;2023-03-20T10:26:40;95411.56;;;12.68;63.85
49999;BME280;68071;45.062;7.356;2023-03-20T10:39:48;95414.97;;;12.49;63.20
49999;BME280;68071;45.062;7.356;2023-03-20T10:42:59;95411.31;;;12.86;65.15
49999;BME280;68071;45.062;7.356;2023-03-20T10:46:05;95414.97;;;12.83;64.56
49999;BME280;68071;45.062;7.356;2023-03-20T10:49:20;95394.50;;;13.01;60.64
49999;BME280;68071;45.062;7.356;2023-03-20T10:52:31;95393.03;;;12.62;65.68
49999;BME280;68071;45.062;7.356;2023-03-20T10:55:38;95390.72;;;12.88;65.36
49999;BME280;68071;45.062;7.356;2023-03-20T10:58:46;95388.81;;;12.50;64.43
49999;BME280;68071;45.062;7.356;2023-03-20T11:01:52;95386.28;;;13.21;64.70
49999;BME280;68071;45.062;7.356;2023-03-20T11:05:00;95384.34;;;13.45;62.66
49999;BME280;68071;45.062;7.356;2023-03-20T11:08:11;95381.19;;;12.89;64.12
49999;BME280;68071;45.062;7.356;2023-03-20T11:11:27;95385.44;;;13.24;63.31
49999;BME280;68071;45.062;7.356;2023-03-20T11:14:36;95379.22;;;13.44;64.18
49999;BME280;68071;45.062;7.356;2023-03-20T11:17:40;95379.72;;;13.86;62.05
49999;BME280;68071;45.062;7.356;2023-03-20T11:20:55;95375.66;;;13.91;61.77
49999;BME280;68071;45.062;7.356;2023-03-20T11:24:00;95366.81;;;13.96;57.84
49999;BME280;68071;45.062;7.356;2023-03-20T11:27:16;95366.00;;;13.24;61.48
49999;BME280;68071;45.062;7.356;2023-03-20T11:30:20;95368.47;;;13.46;62.04
49999;BME280;68071;45.062;7.356;2023-03-20T11:33:25;95356.00;;;13.30;64.79
49999;BME280;68071;45.062;7.356;2023-03-20T11:36:32;95356.03;;;13.78;65.15
49999;BME280;68071;45.062;7.356;2023-03-20T11:39:37;95347.06;;;13.90;63.77
49999;BME280;68071;45.062;7.356;2023-03-20T11:42:52;95354.75;;;14.27;59.67
49999;BME280;68071;45.062;7.356;2023-03-20T11:45:58;95351.25;;;14.22;58.12
49999;BME280;68071;45.062;7.356;2023-03-20T11:49:18;95355.00;;;14.12;65.04
49999;BME280;68071;45.062;7.356;2023-03-20T11:52:27;95349.66;;;14.62;59.76
49999;BME280;68071;45.062;7.356;2023-03-20T11:55:34;95353.88;;;14.70;58.07
49999;BME280;68071;45.062;7.356;2023-03-20T12:02:19;95359.22;;;14.61;57.88
49999;BME280;68071;45.062;7.356;2023-03-20T12:05:35;95347.81;;;14.75;56.19
49999;BME280;68071;45.062;7.356;2023-03-20T12:08:41;95335.78;;;14.21;59.40
49999;BME280;68071;45.062;7.356;2023-03-20T12:11:56;95331.94;;;13.71;61.25
49999;BME280;68071;45.062;7.356;2023-03-20T12:15:24;95330.72;;;14.16;63.79
49999;BME280;68071;45.062;7.356;2023-03-20T12:18:51;95328.50;;;14.28;60.56
49999;BME280;68071;45.062;7.356;2023-03-20T12:22:11;95327.28;;;14.86;60.52
49999;BME280;68071;45.062;7.356;2023-03-20T12:25:23;95316.16;;;14.86;57.81
49999;BME280;68071;45.062;7.356;2023-03-20T12:28:38;95324.09;;;14.87;57.36
49999;BME280;68071;45.062;7.356;2023-03-20T12:35:28;95315.63;;;15.27;56.18
49999;BME280;68071;45.062;7.356;2023-03-20T12:38:32;95316.81;;;15.10;57.35
49999;BME280;68071;45.062;7.356;2023-03-20T12:41:53;95314.31;;;15.16;56.49
49999;BME280;68071;45.062;7.356;2023-03-20T12:45:15;95310.38;;;14.60;60.14
49999;BME280;68071;45.062;7.356;2023-03-20T12:52:01;95314.31;;;15.16;57.24
49999;BME280;68071;45.062;7.356;2023-03-20T13:02:24;95301.06;;;15.53;53.94
49999;BME280;68071;45.062;7.356;2023-03-20T13:05:45;95296.28;;;15.37;54.74
49999;BME280;68071;45.062;7.356;2023-03-20T13:12:46;95302.03;;;15.46;53.26
49999;BME280;68071;45.062;7.356;2023-03-20T13:22:28;95304.88;;;15.42;54.29
49999;BME280;68071;45.062;7.356;2023-03-20T13:29:56;95301.56;;;14.81;54.00
49999;BME280;68071;45.062;7.356;2023-03-20T13:40:22;95297.75;;;15.08;52.93
49999;BME280;68071;45.062;7.356;2023-03-20T13:47:05;95288.53;;;14.95;53.92
49999;BME280;68071;45.062;7.356;2023-03-20T14:00:39;95278.63;;;15.90;48.25
49999;BME280;68071;45.062;7.356;2023-03-20T14:03:45;95279.09;;;15.71;48.90
49999;BME280;68071;45.062;7.356;2023-03-20T14:06:51;95279.44;;;15.73;47.33
49999;BME280;68071;45.062;7.356;2023-03-20T14:09:56;95274.28;;;15.72;45.92
49999;BME280;68071;45.062;7.356;2023-03-20T14:13:05;95278.97;;;15.75;47.35
49999;BME280;68071;45.062;7.356;2023-03-20T14:16:14;95280.13;;;15.78;46.28
49999;BME280;68071;45.062;7.356;2023-03-20T14:19:23;95264.03;;;15.98;46.06
49999;BME280;68071;45.062;7.356;2023-03-20T14:22:29;95255.28;;;16.13;44.19
49999;BME280;68071;45.062;7.356;2023-03-20T14:25:41;95261.13;;;15.89;47.06
49999;BME280;68071;45.062;7.356;2023-03-20T14:28:59;95259.03;;;16.48;44.84
49999;BME280;68071;45.062;7.356;2023-03-20T14:35:25;95257.47;;;15.92;45.90
49999;BME280;68071;45.062;7.356;2023-03-20T14:42:01;95248.56;;;16.10;45.60
49999;BME280;68071;45.062;7.356;2023-03-20T14:48:36;95248.53;;;15.68;47.25
49999;BME280;68071;45.062;7.356;2023-03-20T14:51:46;95243.94;;;16.33;44.28
49999;BME280;68071;45.062;7.356;2023-03-20T14:54:53;95249.09;;;16.47;43.77
49999;BME280;68071;45.062;7.356;2023-03-20T14:58:02;95241.53;;;16.61;42.83
49999;BME280;68071;45.062;7.356;2023-03-20T15:01:21;95243.91;;;16.20;43.36
49999;BME280;68071;45.062;7.356;2023-03-20T15:04:42;95244.03;;;16.16;43.74
49999;BME280;68071;45.062;7.356;2023-03-20T15:07:46;95247.59;;;16.17;44.23
49999;BME280;68071;45.062;7.356;2023-03-20T15:10:56;95250.84;;;15.86;43.81
49999;BME280;68071;45.062;7.356;2023-03-20T15:14:05;95245.50;;;16.34;42.89
49999;BME280;68071;45.062;7.356;2023-03-20T15:17:22;95249.88;;;16.35;42.97
49999;BME280;68071;45.062;7.356;2023-03-20T15:20:27;95255.94;;;16.17;42.83
49999;BME280;68071;45.062;7.356;2023-03-20T15:23:34;95253.34;;;16.39;43.04
49999;BME280;68071;45.062;7.356;2023-03-20T15:26:38;95256.19;;;16.10;43.35
49999;BME280;68071;45.062;7.356;2023-03-20T15:29:46;95256.00;;;16.43;42.12
49999;BME280;68071;45.062;7.356;2023-03-20T15:32:53;95253.66;;;16.28;42.29
49999;BME280;68071;45.062;7.356;2023-03-20T15:36:06;95259.44;;;16.21;42.61
49999;BME280;68071;45.062;7.356;2023-03-20T15:39:17;95255.75;;;16.24;43.27
49999;BME280;68071;45.062;7.356;2023-03-20T15:42:23;95255.81;;;16.50;44.60
49999;BME280;68071;45.062;7.356;2023-03-20T15:45:31;95256.81;;;16.43;44.73
49999;BME280;68071;45.062;7.356;2023-03-20T15:48:35;95259.94;;;16.71;43.74
49999;BME280;68071;45.062;7.356;2023-03-20T15:51:39;95257.94;;;16.72;43.26
49999;BME280;68071;45.062;7.356;2023-03-20T15:54:44;95256.28;;;17.00;41.44
49999;BME280;68071;45.062;7.356;2023-03-20T15:57:51;95261.38;;;16.76;41.58
49999;BME280;68071;45.062;7.356;2023-03-20T16:01:00;95254.38;;;17.10;39.97
49999;BME280;68071;45.062;7.356;2023-03-20T16:04:06;95249.47;;;17.01;39.87
49999;BME280;68071;45.062;7.356;2023-03-20T16:07:28;95254.41;;;16.97;39.79
49999;BME280;68071;45.062;7.356;2023-03-20T16:10:33;95257.06;;;17.01;41.18
49999;BME280;68071;45.062;7.356;2023-03-20T16:13:41;95254.28;;;17.01;40.57
49999;BME280;68071;45.062;7.356;2023-03-20T16:16:48;95250.13;;;17.18;41.67
49999;BME280;68071;45.062;7.356;2023-03-20T16:19:53;95250.75;;;17.48;39.88
49999;BME280;68071;45.062;7.356;2023-03-20T16:23:06;95246.22;;;17.64;40.75
49999;BME280;68071;45.062;7.356;2023-03-20T16:26:15;95247.47;;;17.50;40.30
49999;BME280;68071;45.062;7.356;2023-03-20T16:29:21;95242.19;;;17.65;38.54
49999;BME280;68071;45.062;7.356;2023-03-20T16:32:44;95250.97;;;17.76;39.38
49999;BME280;68071;45.062;7.356;2023-03-20T16:35:50;95257.63;;;16.96;40.89
49999;BME280;68071;45.062;7.356;2023-03-20T16:39:06;95257.13;;;16.32;42.54
49999;BME280;68071;45.062;7.356;2023-03-20T16:42:24;95262.56;;;14.65;45.44
49999;BME280;68071;45.062;7.356;2023-03-20T16:45:33;95255.31;;;15.37;44.69
49999;BME280;68071;45.062;7.356;2023-03-20T16:48:40;95256.25;;;15.14;44.19
49999;BME280;68071;45.062;7.356;2023-03-20T16:51:44;95258.50;;;13.92;48.08
49999;BME280;68071;45.062;7.356;2023-03-20T16:54:48;95263.50;;;13.61;48.64
49999;BME280;68071;45.062;7.356;2023-03-20T16:57:56;95262.25;;;12.08;57.24
49999;BME280;68071;45.062;7.356;2023-03-20T17:01:04;95270.94;;;11.72;56.77
49999;BME280;68071;45.062;7.356;2023-03-20T17:04:28;95270.75;;;11.14;63.44
49999;BME280;68071;45.062;7.356;2023-03-20T17:07:35;95271.53;;;11.91;55.63
49999;BME280;68071;45.062;7.356;2023-03-20T17:10:43;95272.84;;;10.99;63.05
49999;BME280;68071;45.062;7.356;2023-03-20T17:13:47;95280.56;;;11.18;59.83
49999;BME280;68071;45.062;7.356;2023-03-20T17:16:51;95282.88;;;11.27;59.26
49999;BME280;68071;45.062;7.356;2023-03-20T17:19:57;95286.47;;;10.71;62.85
49999;BME280;68071;45.062;7.356;2023-03-20T17:23:01;95296.97;;;10.27;66.72
49999;BME280;68071;45.062;7.356;2023-03-20T17:26:10;95309.72;;;9.99;67.36
49999;BME280;68071;45.062;7.356;2023-03-20T17:29:15;95317.19;;;10.10;66.32
49999;BME280;68071;45.062;7.356;2023-03-20T17:32:20;95304.91;;;10.89;61.51
49999;BME280;68071;45.062;7.356;2023-03-20T17:35:27;95308.50;;;10.86;59.36
49999;BME280;68071;45.062;7.356;2023-03-20T17:38:31;95308.28;;;11.15;56.99
49999;BME280;68071;45.062;7.356;2023-03-20T17:41:36;95313.41;;;10.56;61.07
49999;BME280;68071;45.062;7.356;2023-03-20T17:44:40;95310.06;;;11.36;55.72
49999;BME280;68071;45.062;7.356;2023-03-20T17:47:44;95327.78;;;10.22;62.68
49999;BME280;68071;45.062;7.356;2023-03-20T17:50:49;95322.34;;;10.82;59.42
49999;BME280;68071;45.062;7.356;2023-03-20T17:53:53;95325.06;;;10.04;62.96
49999;BME280;68071;45.062;7.356;2023-03-20T17:57:00;95318.03;;;11.27;55.63
49999;BME280;68071;45.062;7.356;2023-03-20T18:00:27;95323.53;;;10.81;58.25
49999;BME280;68071;45.062;7.356;2023-03-20T18:03:30;95320.50;;;10.57;59.82
49999;BME280;68071;45.062;7.356;2023-03-20T18:06:34;95321.97;;;9.88;63.44
49999;BME280;68071;45.062;7.356;2023-03-20T18:09:39;95325.09;;;10.01;62.76
49999;BME280;68071;45.062;7.356;2023-03-20T18:12:43;95332.66;;;9.71;64.00
49999;BME280;68071;45.062;7.356;2023-03-20T18:15:49;95327.47;;;9.95;61.55
49999;BME280;68071;45.062;7.356;2023-03-20T18:18:54;95337.06;;;9.11;67.09
49999;BME280;68071;45.062;7.356;2023-03-20T18:21:58;95341.59;;;10.15;60.23
49999;BME280;68071;45.062;7.356;2023-03-20T18:25:03;95342.53;;;9.68;63.08
49999;BME280;68071;45.062;7.356;2023-03-20T18:28:12;95337.06;;;9.47;64.37
49999;BME280;68071;45.062;7.356;2023-03-20T18:31:25;95339.44;;;9.30;64.97
49999;BME280;68071;45.062;7.356;2023-03-20T18:34:29;95333.53;;;9.14;65.56
49999;BME280;68071;45.062;7.356;2023-03-20T18:37:33;95340.22;;;9.45;63.31
49999;BME280;68071;45.062;7.356;2023-03-20T18:40:38;95326.81;;;9.29;64.49
49999;BME280;68071;45.062;7.356;2023-03-20T18:43:43;95342.19;;;9.16;65.23
49999;BME280;68071;45.062;7.356;2023-03-20T18:46:50;95352.03;;;9.13;65.50
49999;BME280;68071;45.062;7.356;2023-03-20T18:49:54;95351.19;;;8.69;68.00
49999;BME280;68071;45.062;7.356;2023-03-20T18:52:59;95349.28;;;9.10;65.75
49999;BME280;68071;45.062;7.356;2023-03-20T18:56:23;95368.19;;;9.18;65.12
49999;BME280;68071;45.062;7.356;2023-03-20T18:59:28;95364.25;;;9.30;64.34